createdAt,value
2023-01-02T00:01:08.606Z,100397.13
2023-01-02T00:03:37.903Z,100408.31
2023-01-02T00:06:06.739Z,100401.28
2023-01-02T00:08:34.596Z,100398.16
2023-01-02T00:11:02.396Z,100409.44
2023-01-02T00:13:30.221Z,100405.81
2023-01-02T00:15:57.982Z,100403.53
2023-01-02T00:18:26.058Z,100398.28
2023-01-02T00:20:55.295Z,100394.97
2023-01-02T00:23:23.122Z,100379.25
2023-01-02T00:25:50.875Z,100385.13
2023-01-02T00:28:18.672Z,100386.34
2023-01-02T00:30:46.494Z,100377.81
2023-01-02T00:33:14.347Z,100370.34
2023-01-02T00:35:42.177Z,100375.47
2023-01-02T00:38:11.729Z,100371.00
2023-01-02T00:40:40.090Z,100364.31
2023-01-02T00:43:07.897Z,100363.81
2023-01-02T00:45:35.612Z,100370.91
2023-01-02T00:48:03.364Z,100359.72
2023-01-02T00:50:31.155Z,100361.94
2023-01-02T00:52:58.997Z,100366.84
2023-01-02T00:55:28.138Z,100349.91
2023-01-02T00:57:55.976Z,100362.69
2023-01-02T01:00:24.452Z,100357.53
2023-01-02T01:02:56.291Z,100347.66
2023-01-02T01:05:24.203Z,100363.94
2023-01-02T01:07:52.172Z,100355.72
2023-01-02T01:10:19.863Z,100342.44
2023-01-02T01:12:49.068Z,100341.19
2023-01-02T01:15:16.978Z,100345.38
2023-01-02T01:17:44.867Z,100346.63
2023-01-02T01:20:12.740Z,100344.19
2023-01-02T01:22:40.492Z,100352.28
2023-01-02T01:25:09.063Z,100351.09
2023-01-02T01:27:36.920Z,100340.22
2023-01-02T01:30:07.737Z,100338.81
2023-01-02T01:32:35.678Z,100337.72
2023-01-02T01:35:03.542Z,100342.09
2023-01-02T01:37:31.372Z,100352.75
2023-01-02T01:39:59.112Z,100344.94
2023-01-02T01:42:33.388Z,100340.66
2023-01-02T01:45:03.249Z,100336.06
2023-01-02T01:47:40.048Z,100332.13
2023-01-02T01:50:11.401Z,100341.47
2023-01-02T01:52:42.878Z,100336.94
2023-01-02T01:55:16.797Z,100340.69
2023-01-02T01:57:47.729Z,100336.31
2023-01-02T02:00:16.071Z,100329.81
2023-01-02T02:02:48.826Z,100338.22
2023-01-02T02:05:20.546Z,100335.09
2023-01-02T02:07:57.104Z,100341.38
2023-01-02T02:10:24.903Z,100335.41
2023-01-02T02:12:52.639Z,100338.94
2023-01-02T02:15:24.891Z,100337.69
2023-01-02T02:18:02.749Z,100342.28
2023-01-02T02:20:44.536Z,100337.78
2023-01-02T02:24:02.234Z,100345.22
2023-01-02T02:26:59.781Z,100338.63
2023-01-02T02:30:02.245Z,100333.06
2023-01-02T02:32:40.564Z,100322.88
2023-01-02T02:35:19.016Z,100323.06
2023-01-02T02:37:51.587Z,100324.75
2023-01-02T02:40:29.730Z,100323.44
2023-01-02T02:43:09.996Z,100305.41
2023-01-02T02:45:49.743Z,100316.53
2023-01-02T02:48:24.261Z,100318.63
2023-01-02T02:50:59.177Z,100320.09
2023-01-02T02:53:33.634Z,100324.84
2023-01-02T02:56:05.244Z,100304.75
2023-01-02T02:58:35.712Z,100301.50
2023-01-02T03:01:07.420Z,100302.13
2023-01-02T03:03:35.804Z,100285.78
2023-01-02T03:06:12.702Z,100291.19
2023-01-02T03:08:45.609Z,100284.34
2023-01-02T03:11:15.135Z,100280.59
2023-01-02T03:13:54.865Z,100296.53
2023-01-02T03:16:30.997Z,100297.97
2023-01-02T03:19:06.132Z,100296.22
2023-01-02T03:21:37.143Z,100283.34
2023-01-02T03:24:08.567Z,100286.13
2023-01-02T03:26:38.947Z,100278.94
2023-01-02T03:29:11.709Z,100287.75
2023-01-02T03:31:43.380Z,100289.25
2023-01-02T03:34:15.892Z,100278.09
2023-01-02T03:36:47.717Z,100269.31
2023-01-02T03:39:17.801Z,100275.50
2023-01-02T03:41:51.160Z,100268.72
2023-01-02T03:44:23.518Z,100265.59
2023-01-02T03:46:59.927Z,100265.09
2023-01-02T03:49:33.050Z,100277.91
2023-01-02T03:52:01.359Z,100285.22
2023-01-02T03:54:30.915Z,100295.53
2023-01-02T03:57:02.027Z,100309.00
2023-01-02T03:59:37.549Z,100311.88
2023-01-02T04:02:13.136Z,100322.06
2023-01-02T04:04:50.866Z,100314.38
2023-01-02T04:07:28.511Z,100320.16
2023-01-02T04:09:57.630Z,100325.13
2023-01-02T04:12:27.027Z,100320.38
2023-01-02T04:15:00.161Z,100316.41
2023-01-02T04:17:32.940Z,100304.16
2023-01-02T04:20:04.269Z,100298.03
2023-01-02T04:22:36.495Z,100300.25
2023-01-02T04:25:09.976Z,100291.41
2023-01-02T04:27:42.761Z,100288.34
2023-01-02T04:30:11.435Z,100282.28
2023-01-02T04:32:43.904Z,100275.31
2023-01-02T04:35:15.647Z,100280.41
2023-01-02T04:37:44.644Z,100293.44
2023-01-02T04:40:23.191Z,100304.28
2023-01-02T04:42:51.526Z,100293.59
2023-01-02T04:45:19.805Z,100308.09
2023-01-02T04:47:50.562Z,100311.97
2023-01-02T04:50:19.447Z,100313.53
2023-01-02T04:52:47.205Z,100317.97
2023-01-02T04:55:15.100Z,100328.91
2023-01-02T04:57:42.830Z,100328.66
2023-01-02T05:00:11.725Z,100316.88
2023-01-02T05:02:40.852Z,100319.44
2023-01-02T05:05:11.570Z,100311.88
2023-01-02T05:07:39.310Z,100326.09
2023-01-02T05:10:08.302Z,100323.22
2023-01-02T05:12:37.085Z,100321.63
2023-01-02T05:15:06.488Z,100322.69
2023-01-02T05:17:36.167Z,100322.75
2023-01-02T05:20:04.882Z,100322.66
2023-01-02T05:23:03.551Z,100322.03
2023-01-02T05:25:33.702Z,100323.94
2023-01-02T05:28:02.448Z,100326.78
2023-01-02T05:30:30.439Z,100328.56
2023-01-02T05:32:58.206Z,100336.63
2023-01-02T05:35:32.182Z,100336.09
2023-01-02T05:38:02.423Z,100346.91
2023-01-02T05:40:30.251Z,100345.03
2023-01-02T05:42:59.286Z,100350.91
2023-01-02T05:45:27.266Z,100349.94
2023-01-02T05:47:55.130Z,100356.78
2023-01-02T05:50:23.219Z,100352.63
2023-01-02T05:52:52.128Z,100343.16
2023-01-02T05:55:21.335Z,100366.44
2023-01-02T05:57:49.253Z,100360.59
2023-01-02T06:00:17.619Z,100364.78
2023-01-02T06:02:48.498Z,100374.34
2023-01-02T06:05:17.012Z,100376.84
2023-01-02T06:07:44.899Z,100373.34
2023-01-02T06:10:12.730Z,100370.63
2023-01-02T06:12:42.190Z,100371.75
2023-01-02T06:15:10.715Z,100373.69
2023-01-02T06:17:38.505Z,100374.28
2023-01-02T06:20:07.729Z,100361.59
2023-01-02T06:22:35.486Z,100362.19
2023-01-02T06:25:03.267Z,100361.59
2023-01-02T06:27:33.061Z,100359.16
2023-01-02T06:30:02.390Z,100376.97
2023-01-02T06:32:30.756Z,100384.84
2023-01-02T06:34:58.513Z,100382.06
2023-01-02T06:37:26.314Z,100373.66
2023-01-02T06:39:54.060Z,100381.59
2023-01-02T06:42:21.890Z,100384.03
2023-01-02T06:44:49.619Z,100381.19
2023-01-02T06:47:19.014Z,100379.47
2023-01-02T06:49:46.755Z,100379.34
2023-01-02T06:52:14.564Z,100390.72
2023-01-02T06:54:42.362Z,100374.03
2023-01-02T06:57:10.208Z,100380.50
2023-01-02T06:59:38.201Z,100379.06
2023-01-02T07:02:06.379Z,100376.41
2023-01-02T07:04:35.634Z,100384.47
2023-01-02T07:07:03.427Z,100365.22
2023-01-02T07:09:32.270Z,100373.78
2023-01-02T07:11:59.994Z,100375.59
2023-01-02T07:14:27.955Z,100375.97
2023-01-02T07:16:55.735Z,100362.47
2023-01-02T07:19:23.620Z,100352.16
2023-01-02T07:21:52.689Z,100349.69
2023-01-02T07:24:20.376Z,100349.47
2023-01-02T07:26:48.153Z,100354.94
2023-01-02T07:29:15.896Z,100362.75
2023-01-02T07:31:43.681Z,100370.25
2023-01-02T07:34:11.494Z,100359.44
2023-01-02T07:36:39.282Z,100364.53
2023-01-02T07:39:08.492Z,100358.00
2023-01-02T07:41:36.679Z,100362.16
2023-01-02T07:44:04.628Z,100349.22
2023-01-02T07:46:32.402Z,100359.03
2023-01-02T07:49:00.182Z,100352.56
2023-01-02T07:51:28.013Z,100351.81
2023-01-02T07:53:55.939Z,100354.78
2023-01-02T07:56:25.271Z,100364.03
2023-01-02T07:58:53.375Z,100362.97
2023-01-02T08:01:21.307Z,100361.09
2023-01-02T08:03:49.483Z,100366.41
2023-01-02T08:06:19.203Z,100370.66
2023-01-02T08:08:47.585Z,100375.28
2023-01-02T08:11:17.025Z,100388.31
2023-01-02T08:13:46.635Z,100376.19
2023-01-02T08:16:15.959Z,100390.75
2023-01-02T08:18:43.939Z,100391.19
2023-01-02T08:21:12.264Z,100383.78
2023-01-02T08:23:40.318Z,100397.22
2023-01-02T08:26:10.086Z,100393.66
2023-01-02T08:28:39.559Z,100387.72
2023-01-02T08:31:13.239Z,100402.38
2023-01-02T08:33:41.433Z,100408.03
2023-01-02T08:36:10.364Z,100387.81
2023-01-02T08:38:38.661Z,100401.84
2023-01-02T08:41:06.812Z,100417.06
2023-01-02T08:43:35.927Z,100427.94
2023-01-02T08:46:05.575Z,100415.19
2023-01-02T08:48:35.422Z,100432.38
2023-01-02T08:51:03.986Z,100432.63
2023-01-02T08:53:31.860Z,100425.28
2023-01-02T08:56:18.166Z,100424.78
2023-01-02T08:58:52.678Z,100438.13
2023-01-02T09:01:21.407Z,100438.47
2023-01-02T09:03:51.053Z,100447.50
2023-01-02T09:06:22.089Z,100446.94
2023-01-02T09:08:52.109Z,100449.06
2023-01-02T09:11:24.427Z,100454.47
2023-01-02T09:13:52.404Z,100460.84
2023-01-02T09:16:20.529Z,100455.94
2023-01-02T09:18:48.416Z,100457.38
2023-01-02T09:21:18.134Z,100457.09
2023-01-02T09:23:45.854Z,100471.28
2023-01-02T09:26:14.293Z,100470.03
2023-01-02T09:28:42.357Z,100468.56
2023-01-02T09:31:12.846Z,100482.06
2023-01-02T09:33:40.868Z,100489.28
2023-01-02T09:36:10.424Z,100481.22
2023-01-02T09:38:39.636Z,100482.81
2023-01-02T09:41:15.968Z,100491.94
2023-01-02T09:43:49.558Z,100498.72
2023-01-02T09:46:25.195Z,100493.16
2023-01-02T09:48:53.100Z,100486.59
2023-01-02T09:51:21.424Z,100494.16
2023-01-02T09:53:51.117Z,100491.34
2023-01-02T09:56:23.059Z,100495.06
2023-01-02T09:58:57.168Z,100500.53
2023-01-02T10:01:31.346Z,100505.19
2023-01-02T10:04:07.166Z,100497.66
2023-01-02T10:06:40.819Z,100512.84
2023-01-02T10:09:15.753Z,100514.63
2023-01-02T10:11:52.451Z,100509.16
2023-01-02T10:14:36.132Z,100523.56
2023-01-02T10:17:08.256Z,100518.75
2023-01-02T10:19:44.013Z,100522.13
2023-01-02T10:22:17.280Z,100518.66
2023-01-02T10:24:53.021Z,100517.50
2023-01-02T10:27:24.988Z,100516.69
2023-01-02T10:30:03.787Z,100517.66
2023-01-02T10:32:33.363Z,100515.78
2023-01-02T10:35:12.563Z,100508.56
2023-01-02T10:37:40.368Z,100520.41
2023-01-02T10:40:10.477Z,100507.34
2023-01-02T10:42:38.279Z,100503.63
2023-01-02T10:45:08.778Z,100510.78
2023-01-02T10:47:38.312Z,100509.94
2023-01-02T10:50:07.832Z,100519.09
2023-01-02T10:52:40.124Z,100520.16
2023-01-02T10:55:09.515Z,100515.38
2023-01-02T10:57:41.308Z,100525.34
2023-01-02T11:00:28.542Z,100531.25
2023-01-02T11:02:59.039Z,100526.19
2023-01-02T11:05:28.923Z,100521.69
2023-01-02T11:07:57.377Z,100526.38
2023-01-02T11:10:30.126Z,100540.50
2023-01-02T11:13:02.369Z,100535.88
2023-01-02T11:15:34.511Z,100554.66
2023-01-02T11:18:05.017Z,100535.75
2023-01-02T11:20:36.077Z,100553.81
2023-01-02T11:23:05.696Z,100546.22
2023-01-02T11:25:42.305Z,100540.75
2023-01-02T11:28:17.334Z,100543.38
2023-01-02T11:30:47.268Z,100546.09
2023-01-02T11:33:26.085Z,100556.19
2023-01-02T11:35:57.002Z,100557.84
2023-01-02T11:38:30.797Z,100552.38
2023-01-02T11:41:02.284Z,100553.22
2023-01-02T11:43:48.932Z,100561.81
2023-01-02T11:46:28.672Z,100556.72
2023-01-02T11:49:03.268Z,100554.94
2023-01-02T11:51:34.383Z,100548.16
2023-01-02T11:54:07.747Z,100547.06
2023-01-02T11:56:40.705Z,100555.25
2023-01-02T11:59:16.947Z,100560.09
2023-01-02T12:01:54.975Z,100557.38
2023-01-02T12:04:24.059Z,100559.50
2023-01-02T12:07:10.624Z,100564.03
2023-01-02T12:09:51.412Z,100574.19
2023-01-02T12:12:38.396Z,100565.69
2023-01-02T12:15:33.242Z,100573.91
2023-01-02T12:18:09.865Z,100583.25
2023-01-02T12:20:50.687Z,100567.34
2023-01-02T12:23:33.628Z,100580.97
2023-01-02T12:26:12.395Z,100575.03
2023-01-02T12:29:00.897Z,100590.44
2023-01-02T12:31:49.360Z,100583.69
2023-01-02T12:34:33.351Z,100570.19
2023-01-02T12:37:19.011Z,100585.44
2023-01-02T12:40:07.486Z,100570.41
2023-01-02T12:42:49.961Z,100589.34
2023-01-02T12:45:26.705Z,100592.13
2023-01-02T12:48:09.750Z,100593.41
2023-01-02T12:50:50.942Z,100590.34
2023-01-02T12:53:38.086Z,100583.66
2023-01-02T12:56:11.561Z,100595.41
2023-01-02T12:58:54.181Z,100604.72
2023-01-02T13:01:30.477Z,100609.78
2023-01-02T13:04:05.028Z,100609.81
2023-01-02T13:06:46.693Z,100611.91
2023-01-02T13:09:23.550Z,100602.09
2023-01-02T13:12:01.736Z,100613.78
2023-01-02T13:14:36.074Z,100613.63
2023-01-02T13:17:30.351Z,100597.50
2023-01-02T13:20:02.658Z,100604.44
2023-01-02T13:22:38.471Z,100607.09
2023-01-02T13:25:13.410Z,100593.69
2023-01-02T13:27:41.815Z,100599.16
2023-01-02T13:30:44.001Z,100600.25
2023-01-02T13:33:29.125Z,100599.47
2023-01-02T13:35:57.318Z,100597.25
2023-01-02T13:38:29.462Z,100610.00
2023-01-02T13:41:00.160Z,100608.13
2023-01-02T13:43:31.605Z,100606.13
2023-01-02T13:46:02.063Z,100605.00
2023-01-02T13:48:39.301Z,100594.53
2023-01-02T13:51:15.306Z,100586.31
2023-01-02T13:53:45.194Z,100588.22
2023-01-02T13:56:14.747Z,100584.47
2023-01-02T13:59:01.258Z,100588.59
2023-01-02T14:02:04.034Z,100585.88
2023-01-02T14:04:40.201Z,100592.19
2023-01-02T14:07:43.546Z,100602.13
2023-01-02T14:10:30.865Z,100601.19
2023-01-02T14:13:05.656Z,100595.94
2023-01-02T14:15:42.923Z,100614.03
2023-01-02T14:18:30.542Z,100611.44
2023-01-02T14:20:59.219Z,100618.44
2023-01-02T14:23:31.197Z,100617.97
2023-01-02T14:25:59.330Z,100616.69
2023-01-02T14:28:30.189Z,100612.38
2023-01-02T14:30:59.034Z,100617.53
2023-01-02T14:33:33.942Z,100619.19
2023-01-02T14:36:06.519Z,100600.88
2023-01-02T14:38:41.908Z,100606.19
2023-01-02T14:41:31.671Z,100614.47
2023-01-02T14:43:59.919Z,100620.16
2023-01-02T14:46:29.064Z,100630.25
2023-01-02T14:49:25.619Z,100639.34
2023-01-02T14:51:58.863Z,100640.78
2023-01-02T14:54:31.043Z,100639.16
2023-01-02T14:57:04.030Z,100637.09
2023-01-02T14:59:38.185Z,100631.94
2023-01-02T15:02:14.392Z,100642.72
2023-01-02T15:04:46.907Z,100613.88
2023-01-02T15:07:25.660Z,100627.34
2023-01-02T15:09:58.136Z,100631.81
2023-01-02T15:12:54.441Z,100649.09
2023-01-02T15:15:28.042Z,100665.66
2023-01-02T15:18:01.311Z,100674.50
2023-01-02T15:20:34.093Z,100689.19
2023-01-02T15:23:02.429Z,100679.63
2023-01-02T15:25:36.082Z,100691.53
2023-01-02T15:28:04.578Z,100696.50
2023-01-02T15:30:38.227Z,100703.66
2023-01-02T15:33:06.756Z,100705.13
2023-01-02T15:35:36.469Z,100731.00
2023-01-02T15:38:05.660Z,100721.00
2023-01-02T15:40:36.609Z,100712.66
2023-01-02T15:43:24.052Z,100702.75
2023-01-02T15:45:53.602Z,100713.81
2023-01-02T15:48:22.742Z,100717.78
2023-01-02T15:50:54.315Z,100731.47
2023-01-02T15:53:27.760Z,100750.72
2023-01-02T15:55:56.252Z,100753.03
2023-01-02T15:58:28.661Z,100781.03
2023-01-02T16:01:18.391Z,100787.34
2023-01-02T16:04:02.103Z,100789.84
2023-01-02T16:06:35.940Z,100799.91
2023-01-02T16:09:05.806Z,100791.19
2023-01-02T16:11:36.110Z,100804.50
2023-01-02T16:14:22.322Z,100800.13
2023-01-02T16:16:55.008Z,100798.53
2023-01-02T16:19:28.166Z,100816.66
2023-01-02T16:22:06.660Z,100823.34
2023-01-02T16:24:36.493Z,100822.56
2023-01-02T16:27:06.029Z,100813.78
2023-01-02T16:29:33.851Z,100816.94
2023-01-02T16:32:02.681Z,100802.06
2023-01-02T16:34:35.505Z,100795.00
2023-01-02T16:37:29.648Z,100791.03
2023-01-02T16:39:57.790Z,100799.38
2023-01-02T16:42:37.502Z,100796.47
2023-01-02T16:45:07.133Z,100785.38
2023-01-02T16:47:38.227Z,100784.31
2023-01-02T16:50:08.757Z,100773.06
2023-01-02T16:52:38.456Z,100778.72
2023-01-02T16:55:07.207Z,100788.13
2023-01-02T16:57:34.955Z,100803.59
2023-01-02T17:00:03.161Z,100812.59
2023-01-02T17:02:31.164Z,100824.28
2023-01-02T17:04:59.347Z,100826.59
2023-01-02T17:07:27.148Z,100832.66
2023-01-02T17:09:56.296Z,100837.66
2023-01-02T17:12:24.151Z,100849.59
2023-01-02T17:14:51.911Z,100854.38
2023-01-02T17:17:19.797Z,100861.91
2023-01-02T17:19:47.591Z,100884.91
2023-01-02T17:22:15.414Z,100882.19
2023-01-02T17:24:43.289Z,100891.19
2023-01-02T17:27:12.521Z,100904.75
2023-01-02T17:29:40.358Z,100910.81
2023-01-02T17:32:08.391Z,100904.56
2023-01-02T17:34:36.302Z,100904.56
2023-01-02T17:37:04.130Z,100917.50
2023-01-02T17:39:32.149Z,100935.28
2023-01-02T17:41:59.998Z,100924.41
2023-01-02T17:44:29.411Z,100944.88
2023-01-02T17:49:45.781Z,100948.63
2023-01-02T17:52:13.849Z,100958.06
2023-01-02T17:54:41.754Z,100957.66
2023-01-02T17:57:10.950Z,100960.56
2023-01-02T17:59:41.690Z,100960.75
2023-01-02T18:02:11.075Z,100958.66
2023-01-02T18:04:39.615Z,100966.84
2023-01-02T18:07:07.551Z,100976.59
2023-01-02T18:09:35.503Z,100975.38
2023-01-02T18:12:03.331Z,100986.00
2023-01-02T18:14:31.096Z,100987.03
2023-01-02T18:17:03.165Z,100977.41
2023-01-02T18:19:33.326Z,100987.63
2023-01-02T18:22:01.101Z,100997.88
2023-01-02T18:24:32.631Z,100985.53
2023-01-02T18:27:05.948Z,101012.47
2023-01-02T18:29:33.879Z,101018.50
2023-01-02T18:32:09.395Z,101031.91
2023-01-02T18:34:52.451Z,101032.50
2023-01-02T18:37:26.235Z,101045.28
2023-01-02T18:39:55.337Z,101037.94
2023-01-02T18:42:26.625Z,101036.66
2023-01-02T18:44:55.987Z,101050.66
2023-01-02T18:47:29.044Z,101044.16
2023-01-02T18:50:01.458Z,101021.28
2023-01-02T18:52:30.886Z,101051.25
2023-01-02T18:55:02.098Z,101063.75
2023-01-02T18:57:33.310Z,101068.91
2023-01-02T19:00:16.697Z,101052.59
2023-01-02T19:02:55.240Z,101062.91
2023-01-02T19:05:26.993Z,101066.03
2023-01-02T19:08:16.062Z,101056.16
2023-01-02T19:10:45.990Z,101062.56
2023-01-02T19:13:17.875Z,101078.44
2023-01-02T19:15:48.767Z,101074.47
2023-01-02T19:18:33.496Z,101074.34
2023-01-02T19:21:13.809Z,101086.03
2023-01-02T19:23:47.220Z,101079.97
2023-01-02T19:26:22.459Z,101089.78
2023-01-02T19:28:56.269Z,101080.91
2023-01-02T19:31:24.846Z,101085.69
2023-01-02T19:33:58.078Z,101096.09
2023-01-02T19:36:39.821Z,101094.66
2023-01-02T19:39:31.532Z,101109.00
2023-01-02T19:42:16.420Z,101108.81
2023-01-02T19:44:44.537Z,101103.00
2023-01-02T19:47:12.739Z,101115.53
2023-01-02T19:49:41.974Z,101116.13
2023-01-02T19:52:11.038Z,101124.69
2023-01-02T19:54:40.105Z,101117.31
2023-01-02T19:57:08.813Z,101135.25
2023-01-02T19:59:43.357Z,101137.72
2023-01-02T20:02:12.205Z,101144.69
2023-01-02T20:04:40.223Z,101153.47
2023-01-02T20:07:10.315Z,101146.94
2023-01-02T20:09:38.846Z,101128.09
2023-01-02T20:12:24.716Z,101158.50
2023-01-02T20:14:53.070Z,101161.63
2023-01-02T20:17:21.663Z,101167.28
2023-01-02T20:19:49.703Z,101169.53
2023-01-02T20:22:19.121Z,101178.22
2023-01-02T20:24:47.016Z,101171.38
2023-01-02T20:27:15.692Z,101176.75
2023-01-02T20:29:43.968Z,101165.47
2023-01-02T20:32:11.886Z,101169.56
2023-01-02T20:34:39.790Z,101180.69
2023-01-02T20:37:07.822Z,101206.28
2023-01-02T20:39:37.318Z,101173.63
2023-01-02T20:42:12.948Z,101195.75
2023-01-02T20:44:41.413Z,101200.69
2023-01-02T20:47:09.832Z,101217.31
2023-01-02T20:49:37.656Z,101209.97
2023-01-02T20:52:06.398Z,101218.81
2023-01-02T20:54:34.969Z,101221.81
2023-01-02T20:57:04.539Z,101198.00
2023-01-02T20:59:32.456Z,101228.81
2023-01-02T21:02:00.517Z,101237.78
2023-01-02T21:04:36.165Z,101237.78
2023-01-02T21:07:04.969Z,101228.81
2023-01-02T21:09:32.855Z,101252.72
2023-01-02T21:12:00.742Z,101211.63
2023-01-02T21:14:35.496Z,101250.75
2023-01-02T21:17:05.399Z,101251.59
2023-01-02T21:19:33.186Z,101247.78
2023-01-02T21:22:01.133Z,101264.97
2023-01-02T21:24:43.804Z,101258.13
2023-01-02T21:27:13.470Z,101249.06
2023-01-02T21:29:42.783Z,101261.97
2023-01-02T21:32:10.635Z,101264.78
2023-01-02T21:34:38.480Z,101257.13
2023-01-02T21:37:06.266Z,101265.25
2023-01-02T21:39:34.199Z,101261.78
2023-01-02T21:42:17.109Z,101269.06
2023-01-02T21:44:47.794Z,101272.34
2023-01-02T21:47:15.925Z,101275.91
2023-01-02T21:49:44.185Z,101277.28
2023-01-02T21:52:12.032Z,101293.25
2023-01-02T21:54:39.967Z,101297.44
2023-01-02T21:57:08.024Z,101305.38
2023-01-02T21:59:35.998Z,101307.50
2023-01-02T22:02:06.697Z,101309.63
2023-01-02T22:04:35.721Z,101321.09
2023-01-02T22:07:30.557Z,101326.53
2023-01-02T22:09:52.143Z,101330.22
2023-01-02T22:12:20.108Z,101336.66
2023-01-02T22:14:47.925Z,101338.75
2023-01-02T22:17:17.277Z,101334.88
2023-01-02T22:19:45.337Z,101347.16
2023-01-02T22:22:13.214Z,101342.94
2023-01-02T22:24:44.604Z,101341.19
2023-01-02T22:27:15.004Z,101352.84
2023-01-02T22:30:19.523Z,101358.28
2023-01-02T22:32:35.134Z,101359.50
2023-01-02T22:35:05.078Z,101363.34
2023-01-02T22:37:33.214Z,101370.28
2023-01-02T22:40:02.138Z,101380.25
2023-01-02T22:43:07.446Z,101389.00
2023-01-02T22:45:40.430Z,101383.28
2023-01-02T22:48:18.115Z,101388.34
2023-01-02T22:50:47.356Z,101351.59
2023-01-02T22:53:22.920Z,101395.94
2023-01-02T22:55:51.126Z,101398.59
2023-01-02T22:58:22.281Z,101390.91
2023-01-02T23:00:57.582Z,101403.81
2023-01-02T23:03:29.404Z,101397.78
2023-01-02T23:05:57.404Z,101383.28
2023-01-02T23:08:25.321Z,101402.28
2023-01-02T23:10:53.223Z,101398.97
2023-01-02T23:13:21.048Z,101403.53
2023-01-02T23:16:06.269Z,101405.00
2023-01-02T23:18:56.477Z,101410.31
2023-01-02T23:21:25.639Z,101407.44
2023-01-02T23:23:53.765Z,101411.28
2023-01-02T23:26:23.719Z,101420.41
2023-01-02T23:29:08.295Z,101412.69
2023-01-02T23:31:38.221Z,101422.84
2023-01-02T23:34:07.969Z,101405.00
2023-01-02T23:36:36.617Z,101422.03
2023-01-02T23:39:05.248Z,101407.88
2023-01-02T23:41:33.092Z,101414.81
2023-01-02T23:44:00.922Z,101415.16
2023-01-02T23:46:28.745Z,101411.63
2023-01-02T23:48:56.624Z,101407.72
2023-01-02T23:51:25.794Z,101395.09
2023-01-02T23:53:53.706Z,101409.03
2023-01-02T23:56:23.538Z,101415.00
2023-01-02T23:58:53.383Z,101409.97
